sensor_id;sensor_type;location;lat;lon;timestamp;temperature;humidity
19172;DHT22;9718;52.200;21.052;2022-12-29T00:00:21;5.90;99.90
19172;DHT22;9718;52.200;21.052;2022-12-29T00:03:09;6.00;99.90
19172;DHT22;9718;52.200;21.052;2022-12-29T00:05:36;5.90;99.90
19172;DHT22;9718;52.200;21.052;2022-12-29T00:08:04;5.90;99.90
19172;DHT22;9718;52.200;21.052;2022-12-29T00:10:31;5.90;99.90
19172;DHT22;9718;52.200;21.052;2022-12-29T00:12:59;5.90;99.90
19172;DHT22;9718;52.200;21.052;2022-12-29T00:15:45;6.00;99.90
19172;DHT22;9718;52.200;21.052;2022-12-29T00:18:12;6.00;99.90
19172;DHT22;9718;52.200;21.052;2022-12-29T00:20:39;6.00;99.90
19172;DHT22;9718;52.200;21.052;2022-12-29T00:23:25;6.00;99.90
19172;DHT22;9718;52.200;21.052;2022-12-29T00:26:14;5.90;99.90
19172;DHT22;9718;52.200;21.052;2022-12-29T00:29:00;5.90;99.90
19172;DHT22;9718;52.200;21.052;2022-12-29T00:31:46;6.00;99.90
19172;DHT22;9718;52.200;21.052;2022-12-29T00:34:33;5.90;99.90
19172;DHT22;9718;52.200;21.052;2022-12-29T00:37:18;5.90;99.90
19172;DHT22;9718;52.200;21.052;2022-12-29T00:40:06;6.00;99.90
19172;DHT22;9718;52.200;21.052;2022-12-29T00:42:52;6.00;99.90
19172;DHT22;9718;52.200;21.052;2022-12-29T00:45:43;5.90;99.90
19172;DHT22;9718;52.200;21.052;2022-12-29T00:48:10;5.90;99.90
19172;DHT22;9718;52.200;21.052;2022-12-29T00:50:37;5.90;99.90
19172;DHT22;9718;52.200;21.052;2022-12-29T00:53:04;5.90;99.90
19172;DHT22;9718;52.200;21.052;2022-12-29T00:55:31;5.90;99.90
19172;DHT22;9718;52.200;21.052;2022-12-29T00:58:02;5.90;99.90
19172;DHT22;9718;52.200;21.052;2022-12-29T01:00:29;5.90;99.90
19172;DHT22;9718;52.200;21.052;2022-12-29T01:02:56;5.80;99.90
19172;DHT22;9718;52.200;21.052;2022-12-29T01:05:24;5.80;99.90
19172;DHT22;9718;52.200;21.052;2022-12-29T01:07:51;5.80;99.90
19172;DHT22;9718;52.200;21.052;2022-12-29T01:10:18;5.80;99.90
19172;DHT22;9718;52.200;21.052;2022-12-29T01:12:45;5.90;99.90
19172;DHT22;9718;52.200;21.052;2022-12-29T01:15:14;5.80;99.90
19172;DHT22;9718;52.200;21.052;2022-12-29T01:17:42;5.80;99.90
19172;DHT22;9718;52.200;21.052;2022-12-29T01:20:10;5.80;99.90
19172;DHT22;9718;52.200;21.052;2022-12-29T01:22:38;5.80;99.90
19172;DHT22;9718;52.200;21.052;2022-12-29T01:25:06;5.80;99.90
19172;DHT22;9718;52.200;21.052;2022-12-29T01:27:33;5.80;99.90
19172;DHT22;9718;52.200;21.052;2022-12-29T01:30:00;5.90;99.90
19172;DHT22;9718;52.200;21.052;2022-12-29T01:32:27;5.80;99.90
19172;DHT22;9718;52.200;21.052;2022-12-29T01:34:55;5.80;99.90
19172;DHT22;9718;52.200;21.052;2022-12-29T01:37:22;5.80;99.90
19172;DHT22;9718;52.200;21.052;2022-12-29T01:39:49;5.80;99.90
19172;DHT22;9718;52.200;21.052;2022-12-29T01:42:18;5.80;99.90
19172;DHT22;9718;52.200;21.052;2022-12-29T01:44:53;5.80;99.90
19172;DHT22;9718;52.200;21.052;2022-12-29T01:47:26;5.90;99.90
19172;DHT22;9718;52.200;21.052;2022-12-29T01:49:57;5.90;99.90
19172;DHT22;9718;52.200;21.052;2022-12-29T01:52:27;5.90;99.90
19172;DHT22;9718;52.200;21.052;2022-12-29T01:54:56;5.90;99.90
19172;DHT22;9718;52.200;21.052;2022-12-29T01:57:27;5.80;99.90
19172;DHT22;9718;52.200;21.052;2022-12-29T02:00:17;5.90;99.90
19172;DHT22;9718;52.200;21.052;2022-12-29T02:02:49;5.80;99.90
19172;DHT22;9718;52.200;21.052;2022-12-29T02:05:50;5.80;99.90
19172;DHT22;9718;52.200;21.052;2022-12-29T02:08:21;5.80;99.90
19172;DHT22;9718;52.200;21.052;2022-12-29T02:10:49;5.80;99.90
19172;DHT22;9718;52.200;21.052;2022-12-29T02:13:16;5.80;99.90
19172;DHT22;9718;52.200;21.052;2022-12-29T02:30:04;5.70;99.90
19172;DHT22;9718;52.200;21.052;2022-12-29T02:41:02;5.50;99.90
19172;DHT22;9718;52.200;21.052;2022-12-29T02:43:38;5.50;99.90
19172;DHT22;9718;52.200;21.052;2022-12-29T02:46:18;5.40;99.90
19172;DHT22;9718;52.200;21.052;2022-12-29T02:49:03;5.40;99.90
19172;DHT22;9718;52.200;21.052;2022-12-29T02:51:40;5.40;99.90
19172;DHT22;9718;52.200;21.052;2022-12-29T02:54:10;5.30;99.90
19172;DHT22;9718;52.200;21.052;2022-12-29T02:56:55;5.30;99.90
19172;DHT22;9718;52.200;21.052;2022-12-29T02:59:23;5.30;99.90
19172;DHT22;9718;52.200;21.052;2022-12-29T03:05:17;5.20;99.90
19172;DHT22;9718;52.200;21.052;2022-12-29T03:11:04;5.10;99.90
19172;DHT22;9718;52.200;21.052;2022-12-29T03:13:44;5.00;99.90
19172;DHT22;9718;52.200;21.052;2022-12-29T03:19:05;4.90;99.90
19172;DHT22;9718;52.200;21.052;2022-12-29T03:21:40;4.80;99.90
19172;DHT22;9718;52.200;21.052;2022-12-29T03:24:29;4.80;99.90
19172;DHT22;9718;52.200;21.052;2022-12-29T03:27:00;4.70;99.90
19172;DHT22;9718;52.200;21.052;2022-12-29T03:29:31;4.80;99.90
19172;DHT22;9718;52.200;21.052;2022-12-29T03:32:01;4.80;99.90
19172;DHT22;9718;52.200;21.052;2022-12-29T03:34:30;4.70;99.90
19172;DHT22;9718;52.200;21.052;2022-12-29T03:37:02;4.70;99.90
19172;DHT22;9718;52.200;21.052;2022-12-29T03:39:29;4.80;99.90
19172;DHT22;9718;52.200;21.052;2022-12-29T03:42:03;4.80;99.90
19172;DHT22;9718;52.200;21.052;2022-12-29T03:44:43;4.70;99.90
19172;DHT22;9718;52.200;21.052;2022-12-29T03:47:11;4.70;99.90
19172;DHT22;9718;52.200;21.052;2022-12-29T03:49:40;4.70;99.90
19172;DHT22;9718;52.200;21.052;2022-12-29T03:52:08;4.70;99.90
19172;DHT22;9718;52.200;21.052;2022-12-29T03:54:35;4.70;99.90
19172;DHT22;9718;52.200;21.052;2022-12-29T03:57:02;4.60;99.90
19172;DHT22;9718;52.200;21.052;2022-12-29T03:59:29;4.60;99.90
19172;DHT22;9718;52.200;21.052;2022-12-29T04:01:56;4.50;99.90
19172;DHT22;9718;52.200;21.052;2022-12-29T04:04:23;4.50;99.90
19172;DHT22;9718;52.200;21.052;2022-12-29T04:06:51;4.50;99.90
19172;DHT22;9718;52.200;21.052;2022-12-29T04:09:19;4.50;99.90
19172;DHT22;9718;52.200;21.052;2022-12-29T04:11:46;4.50;99.90
19172;DHT22;9718;52.200;21.052;2022-12-29T04:14:13;4.50;99.90
19172;DHT22;9718;52.200;21.052;2022-12-29T04:16:41;4.50;99.90
19172;DHT22;9718;52.200;21.052;2022-12-29T04:19:08;4.50;99.90
19172;DHT22;9718;52.200;21.052;2022-12-29T04:21:35;4.50;99.90
19172;DHT22;9718;52.200;21.052;2022-12-29T04:24:03;4.60;99.90
19172;DHT22;9718;52.200;21.052;2022-12-29T04:26:33;4.50;99.90
19172;DHT22;9718;52.200;21.052;2022-12-29T04:29:00;4.50;99.90
19172;DHT22;9718;52.200;21.052;2022-12-29T04:31:28;4.50;99.90
19172;DHT22;9718;52.200;21.052;2022-12-29T04:33:55;4.50;99.90
19172;DHT22;9718;52.200;21.052;2022-12-29T04:36:24;4.50;99.90
19172;DHT22;9718;52.200;21.052;2022-12-29T04:38:56;4.50;99.90
19172;DHT22;9718;52.200;21.052;2022-12-29T04:41:23;4.50;99.90
19172;DHT22;9718;52.200;21.052;2022-12-29T04:43:50;4.50;99.90
19172;DHT22;9718;52.200;21.052;2022-12-29T04:46:17;4.50;99.90
19172;DHT22;9718;52.200;21.052;2022-12-29T04:48:45;4.50;99.90
19172;DHT22;9718;52.200;21.052;2022-12-29T04:51:12;4.40;99.90
19172;DHT22;9718;52.200;21.052;2022-12-29T04:53:40;4.40;99.90
19172;DHT22;9718;52.200;21.052;2022-12-29T04:56:07;4.40;99.90
19172;DHT22;9718;52.200;21.052;2022-12-29T04:58:36;4.40;99.90
19172;DHT22;9718;52.200;21.052;2022-12-29T05:01:03;4.40;99.90
19172;DHT22;9718;52.200;21.052;2022-12-29T05:03:30;4.40;99.90
19172;DHT22;9718;52.200;21.052;2022-12-29T05:05:58;4.40;99.90
19172;DHT22;9718;52.200;21.052;2022-12-29T05:08:25;4.40;99.90
19172;DHT22;9718;52.200;21.052;2022-12-29T05:10:54;4.40;99.90
19172;DHT22;9718;52.200;21.052;2022-12-29T05:13:21;4.40;99.90
19172;DHT22;9718;52.200;21.052;2022-12-29T05:15:52;4.40;99.90
19172;DHT22;9718;52.200;21.052;2022-12-29T05:18:20;4.50;99.90
19172;DHT22;9718;52.200;21.052;2022-12-29T05:20:47;4.40;99.90
19172;DHT22;9718;52.200;21.052;2022-12-29T05:23:14;4.40;99.90
19172;DHT22;9718;52.200;21.052;2022-12-29T05:25:43;4.40;99.90
19172;DHT22;9718;52.200;21.052;2022-12-29T05:28:12;4.40;99.90
19172;DHT22;9718;52.200;21.052;2022-12-29T05:30:40;4.40;99.90
19172;DHT22;9718;52.200;21.052;2022-12-29T05:33:07;4.40;99.90
19172;DHT22;9718;52.200;21.052;2022-12-29T05:35:38;4.50;99.90
19172;DHT22;9718;52.200;21.052;2022-12-29T05:38:06;4.50;99.90
19172;DHT22;9718;52.200;21.052;2022-12-29T05:40:33;4.50;99.90
19172;DHT22;9718;52.200;21.052;2022-12-29T05:43:00;4.60;99.90
19172;DHT22;9718;52.200;21.052;2022-12-29T05:45:27;4.50;99.90
19172;DHT22;9718;52.200;21.052;2022-12-29T05:47:55;4.60;99.90
19172;DHT22;9718;52.200;21.052;2022-12-29T05:50:22;4.50;99.90
19172;DHT22;9718;52.200;21.052;2022-12-29T05:52:49;4.50;99.90
19172;DHT22;9718;52.200;21.052;2022-12-29T05:55:17;4.50;99.90
19172;DHT22;9718;52.200;21.052;2022-12-29T05:57:45;4.50;99.90
19172;DHT22;9718;52.200;21.052;2022-12-29T06:00:12;4.50;99.90
19172;DHT22;9718;52.200;21.052;2022-12-29T06:02:40;4.50;99.90
19172;DHT22;9718;52.200;21.052;2022-12-29T06:05:07;4.60;99.90
19172;DHT22;9718;52.200;21.052;2022-12-29T06:07:34;4.60;99.90
19172;DHT22;9718;52.200;21.052;2022-12-29T06:10:02;4.60;99.90
19172;DHT22;9718;52.200;21.052;2022-12-29T06:12:29;4.70;99.90
19172;DHT22;9718;52.200;21.052;2022-12-29T06:14:56;4.70;99.90
19172;DHT22;9718;52.200;21.052;2022-12-29T06:17:23;4.70;99.90
19172;DHT22;9718;52.200;21.052;2022-12-29T06:19:51;4.70;99.90
19172;DHT22;9718;52.200;21.052;2022-12-29T06:22:18;4.70;99.90
19172;DHT22;9718;52.200;21.052;2022-12-29T06:24:45;4.80;99.90
19172;DHT22;9718;52.200;21.052;2022-12-29T06:27:12;4.80;99.90
19172;DHT22;9718;52.200;21.052;2022-12-29T06:29:40;4.80;99.90
19172;DHT22;9718;52.200;21.052;2022-12-29T06:32:08;4.90;99.90
19172;DHT22;9718;52.200;21.052;2022-12-29T06:34:35;4.80;99.90
19172;DHT22;9718;52.200;21.052;2022-12-29T06:37:02;4.90;99.90
19172;DHT22;9718;52.200;21.052;2022-12-29T06:39:30;4.90;99.90
19172;DHT22;9718;52.200;21.052;2022-12-29T06:41:57;5.00;99.90
19172;DHT22;9718;52.200;21.052;2022-12-29T06:44:24;4.90;99.90
19172;DHT22;9718;52.200;21.052;2022-12-29T06:46:51;4.90;99.90
19172;DHT22;9718;52.200;21.052;2022-12-29T06:49:18;4.90;99.90
19172;DHT22;9718;52.200;21.052;2022-12-29T06:51:46;4.90;99.90
19172;DHT22;9718;52.200;21.052;2022-12-29T06:54:13;5.00;99.90
19172;DHT22;9718;52.200;21.052;2022-12-29T06:56:40;5.00;99.90
19172;DHT22;9718;52.200;21.052;2022-12-29T06:59:08;5.10;99.90
19172;DHT22;9718;52.200;21.052;2022-12-29T07:01:35;5.10;99.90
19172;DHT22;9718;52.200;21.052;2022-12-29T07:04:03;5.10;99.90
19172;DHT22;9718;52.200;21.052;2022-12-29T07:06:30;5.20;99.90
19172;DHT22;9718;52.200;21.052;2022-12-29T07:08:57;5.10;99.90
19172;DHT22;9718;52.200;21.052;2022-12-29T07:11:25;5.10;99.90
19172;DHT22;9718;52.200;21.052;2022-12-29T07:13:52;5.20;99.90
19172;DHT22;9718;52.200;21.052;2022-12-29T07:16:19;5.20;99.90
19172;DHT22;9718;52.200;21.052;2022-12-29T07:18:47;5.20;99.90
19172;DHT22;9718;52.200;21.052;2022-12-29T07:21:14;5.20;99.90
19172;DHT22;9718;52.200;21.052;2022-12-29T07:23:41;5.30;99.90
19172;DHT22;9718;52.200;21.052;2022-12-29T07:26:11;5.30;99.90
19172;DHT22;9718;52.200;21.052;2022-12-29T07:28:39;5.40;99.90
19172;DHT22;9718;52.200;21.052;2022-12-29T07:31:06;5.30;99.90
19172;DHT22;9718;52.200;21.052;2022-12-29T07:33:36;5.40;99.90
19172;DHT22;9718;52.200;21.052;2022-12-29T07:36:03;5.40;99.90
19172;DHT22;9718;52.200;21.052;2022-12-29T07:38:31;5.40;99.90
19172;DHT22;9718;52.200;21.052;2022-12-29T07:40:58;5.50;99.90
19172;DHT22;9718;52.200;21.052;2022-12-29T07:43:25;5.50;99.90
19172;DHT22;9718;52.200;21.052;2022-12-29T07:45:53;5.50;99.90
19172;DHT22;9718;52.200;21.052;2022-12-29T07:48:21;5.50;99.90
19172;DHT22;9718;52.200;21.052;2022-12-29T07:50:49;5.60;99.90
19172;DHT22;9718;52.200;21.052;2022-12-29T07:53:16;5.60;99.90
19172;DHT22;9718;52.200;21.052;2022-12-29T07:55:43;5.60;99.90
19172;DHT22;9718;52.200;21.052;2022-12-29T07:58:10;5.60;99.90
19172;DHT22;9718;52.200;21.052;2022-12-29T08:00:38;5.60;99.90
19172;DHT22;9718;52.200;21.052;2022-12-29T08:03:05;5.60;99.90
19172;DHT22;9718;52.200;21.052;2022-12-29T08:05:33;5.60;99.90
19172;DHT22;9718;52.200;21.052;2022-12-29T08:08:00;5.70;99.90
19172;DHT22;9718;52.200;21.052;2022-12-29T08:10:28;5.70;99.90
19172;DHT22;9718;52.200;21.052;2022-12-29T08:12:55;5.70;99.90
19172;DHT22;9718;52.200;21.052;2022-12-29T08:15:22;5.70;99.90
19172;DHT22;9718;52.200;21.052;2022-12-29T08:17:58;5.80;99.90
19172;DHT22;9718;52.200;21.052;2022-12-29T08:20:25;5.90;99.90
19172;DHT22;9718;52.200;21.052;2022-12-29T08:22:52;6.00;99.90
19172;DHT22;9718;52.200;21.052;2022-12-29T08:25:19;6.10;99.90
19172;DHT22;9718;52.200;21.052;2022-12-29T08:27:46;6.10;99.90
19172;DHT22;9718;52.200;21.052;2022-12-29T08:30:14;6.20;99.90
19172;DHT22;9718;52.200;21.052;2022-12-29T08:32:41;6.20;99.90
19172;DHT22;9718;52.200;21.052;2022-12-29T08:35:08;6.30;99.90
19172;DHT22;9718;52.200;21.052;2022-12-29T08:37:36;6.30;99.90
19172;DHT22;9718;52.200;21.052;2022-12-29T08:40:04;6.30;99.90
19172;DHT22;9718;52.200;21.052;2022-12-29T08:42:32;6.40;99.90
19172;DHT22;9718;52.200;21.052;2022-12-29T08:45:00;6.40;99.90
19172;DHT22;9718;52.200;21.052;2022-12-29T08:47:27;6.50;99.90
19172;DHT22;9718;52.200;21.052;2022-12-29T08:49:55;6.50;99.90
19172;DHT22;9718;52.200;21.052;2022-12-29T08:52:22;6.60;99.90
19172;DHT22;9718;52.200;21.052;2022-12-29T08:54:50;6.60;99.90
19172;DHT22;9718;52.200;21.052;2022-12-29T08:57:17;6.70;99.90
19172;DHT22;9718;52.200;21.052;2022-12-29T08:59:45;6.70;99.90
19172;DHT22;9718;52.200;21.052;2022-12-29T09:02:12;6.70;99.90
19172;DHT22;9718;52.200;21.052;2022-12-29T09:04:49;6.70;99.90
19172;DHT22;9718;52.200;21.052;2022-12-29T09:07:16;6.70;99.90
19172;DHT22;9718;52.200;21.052;2022-12-29T09:09:43;6.80;99.90
19172;DHT22;9718;52.200;21.052;2022-12-29T09:12:10;6.80;99.90
19172;DHT22;9718;52.200;21.052;2022-12-29T09:14:38;6.90;99.90
19172;DHT22;9718;52.200;21.052;2022-12-29T09:17:05;6.80;99.90
19172;DHT22;9718;52.200;21.052;2022-12-29T09:19:51;6.80;99.90
19172;DHT22;9718;52.200;21.052;2022-12-29T09:22:19;6.90;99.90
19172;DHT22;9718;52.200;21.052;2022-12-29T09:24:46;6.90;99.90
19172;DHT22;9718;52.200;21.052;2022-12-29T09:27:13;7.00;99.90
19172;DHT22;9718;52.200;21.052;2022-12-29T09:29:41;7.00;99.90
19172;DHT22;9718;52.200;21.052;2022-12-29T09:32:08;7.20;99.90
19172;DHT22;9718;52.200;21.052;2022-12-29T09:34:43;7.20;99.90
19172;DHT22;9718;52.200;21.052;2022-12-29T09:37:10;7.20;99.90
19172;DHT22;9718;52.200;21.052;2022-12-29T09:39:37;7.20;99.90
19172;DHT22;9718;52.200;21.052;2022-12-29T09:42:16;7.20;99.90
19172;DHT22;9718;52.200;21.052;2022-12-29T09:45:00;7.10;99.90
19172;DHT22;9718;52.200;21.052;2022-12-29T09:47:30;7.10;99.90
19172;DHT22;9718;52.200;21.052;2022-12-29T09:53:03;7.20;99.90
19172;DHT22;9718;52.200;21.052;2022-12-29T09:55:52;7.20;99.90
19172;DHT22;9718;52.200;21.052;2022-12-29T10:01:21;7.30;99.90
19172;DHT22;9718;52.200;21.052;2022-12-29T10:03:52;7.30;99.90
19172;DHT22;9718;52.200;21.052;2022-12-29T10:06:32;7.30;99.90
19172;DHT22;9718;52.200;21.052;2022-12-29T10:15:00;7.40;99.90
19172;DHT22;9718;52.200;21.052;2022-12-29T10:17:39;7.30;99.90
19172;DHT22;9718;52.200;21.052;2022-12-29T10:20:18;7.30;99.90
19172;DHT22;9718;52.200;21.052;2022-12-29T10:25:26;7.30;99.90
19172;DHT22;9718;52.200;21.052;2022-12-29T10:28:03;7.30;99.90
19172;DHT22;9718;52.200;21.052;2022-12-29T10:30:33;7.40;99.90
19172;DHT22;9718;52.200;21.052;2022-12-29T10:33:06;7.40;99.90
19172;DHT22;9718;52.200;21.052;2022-12-29T10:35:36;7.40;99.90
19172;DHT22;9718;52.200;21.052;2022-12-29T10:41:02;7.40;99.90
19172;DHT22;9718;52.200;21.052;2022-12-29T10:46:14;7.50;99.90
19172;DHT22;9718;52.200;21.052;2022-12-29T10:48:43;7.50;99.90
19172;DHT22;9718;52.200;21.052;2022-12-29T10:51:28;7.60;99.90
19172;DHT22;9718;52.200;21.052;2022-12-29T10:54:03;7.60;99.90
19172;DHT22;9718;52.200;21.052;2022-12-29T10:56:53;7.70;99.90
19172;DHT22;9718;52.200;21.052;2022-12-29T10:59:25;7.80;99.90
19172;DHT22;9718;52.200;21.052;2022-12-29T11:07:17;7.80;99.90
19172;DHT22;9718;52.200;21.052;2022-12-29T11:09:53;7.90;99.90
19172;DHT22;9718;52.200;21.052;2022-12-29T11:12:29;7.90;99.90
19172;DHT22;9718;52.200;21.052;2022-12-29T11:15:13;8.00;99.90
19172;DHT22;9718;52.200;21.052;2022-12-29T11:17:47;8.00;99.90
19172;DHT22;9718;52.200;21.052;2022-12-29T11:20:27;8.00;99.90
19172;DHT22;9718;52.200;21.052;2022-12-29T11:22:55;8.00;99.90
19172;DHT22;9718;52.200;21.052;2022-12-29T11:25:22;8.10;99.90
19172;DHT22;9718;52.200;21.052;2022-12-29T11:28:02;8.10;99.90
19172;DHT22;9718;52.200;21.052;2022-12-29T11:30:32;8.10;99.90
19172;DHT22;9718;52.200;21.052;2022-12-29T11:33:03;8.10;99.90
19172;DHT22;9718;52.200;21.052;2022-12-29T11:35:40;8.10;99.90
19172;DHT22;9718;52.200;21.052;2022-12-29T11:38:24;8.20;99.90
19172;DHT22;9718;52.200;21.052;2022-12-29T11:40:52;8.10;99.90
19172;DHT22;9718;52.200;21.052;2022-12-29T11:46:01;8.20;99.90
19172;DHT22;9718;52.200;21.052;2022-12-29T11:48:40;8.20;99.90
19172;DHT22;9718;52.200;21.052;2022-12-29T11:51:09;8.20;99.90
19172;DHT22;9718;52.200;21.052;2022-12-29T11:53:45;8.20;99.90
19172;DHT22;9718;52.200;21.052;2022-12-29T11:56:16;8.20;99.90
19172;DHT22;9718;52.200;21.052;2022-12-29T11:58:44;8.20;99.90
19172;DHT22;9718;52.200;21.052;2022-12-29T12:01:44;8.20;99.90
19172;DHT22;9718;52.200;21.052;2022-12-29T12:04:15;8.20;99.90
19172;DHT22;9718;52.200;21.052;2022-12-29T12:07:00;8.20;99.90
19172;DHT22;9718;52.200;21.052;2022-12-29T12:09:32;8.20;99.90
19172;DHT22;9718;52.200;21.052;2022-12-29T12:12:02;8.20;99.90
19172;DHT22;9718;52.200;21.052;2022-12-29T12:14:50;8.30;99.90
19172;DHT22;9718;52.200;21.052;2022-12-29T12:17:27;8.40;99.90
19172;DHT22;9718;52.200;21.052;2022-12-29T12:20:26;8.40;99.90
19172;DHT22;9718;52.200;21.052;2022-12-29T12:31:40;8.50;99.90
19172;DHT22;9718;52.200;21.052;2022-12-29T12:34:16;8.50;99.90
19172;DHT22;9718;52.200;21.052;2022-12-29T12:40:05;8.50;99.90
19172;DHT22;9718;52.200;21.052;2022-12-29T12:42:49;8.50;99.90
19172;DHT22;9718;52.200;21.052;2022-12-29T12:45:51;8.60;99.90
19172;DHT22;9718;52.200;21.052;2022-12-29T12:51:56;8.60;99.90
19172;DHT22;9718;52.200;21.052;2022-12-29T12:58:17;8.60;99.90
19172;DHT22;9718;52.200;21.052;2022-12-29T13:04:02;8.70;99.90
19172;DHT22;9718;52.200;21.052;2022-12-29T13:07:20;8.70;99.90
19172;DHT22;9718;52.200;21.052;2022-12-29T13:16:05;8.80;99.90
19172;DHT22;9718;52.200;21.052;2022-12-29T13:18:56;8.80;99.90
19172;DHT22;9718;52.200;21.052;2022-12-29T13:30:13;8.90;99.90
19172;DHT22;9718;52.200;21.052;2022-12-29T13:38:48;8.90;99.90
19172;DHT22;9718;52.200;21.052;2022-12-29T13:41:37;9.00;99.90
19172;DHT22;9718;52.200;21.052;2022-12-29T13:47:22;9.00;99.90
19172;DHT22;9718;52.200;21.052;2022-12-29T13:49:53;9.00;99.90
19172;DHT22;9718;52.200;21.052;2022-12-29T14:01:59;9.00;99.90
19172;DHT22;9718;52.200;21.052;2022-12-29T14:04:58;8.90;99.90
19172;DHT22;9718;52.200;21.052;2022-12-29T14:08:05;9.00;99.90
19172;DHT22;9718;52.200;21.052;2022-12-29T14:10:54;9.00;99.90
19172;DHT22;9718;52.200;21.052;2022-12-29T14:13:44;9.00;99.90
19172;DHT22;9718;52.200;21.052;2022-12-29T14:16:45;9.00;99.90
19172;DHT22;9718;52.200;21.052;2022-12-29T14:19:33;9.00;99.90
19172;DHT22;9718;52.200;21.052;2022-12-29T14:22:58;9.00;99.90
19172;DHT22;9718;52.200;21.052;2022-12-29T14:28:43;9.00;99.90
19172;DHT22;9718;52.200;21.052;2022-12-29T14:39:38;8.90;99.90
19172;DHT22;9718;52.200;21.052;2022-12-29T14:42:40;8.90;99.90
19172;DHT22;9718;52.200;21.052;2022-12-29T14:45:51;8.90;99.90
19172;DHT22;9718;52.200;21.052;2022-12-29T14:48:31;8.90;99.90
19172;DHT22;9718;52.200;21.052;2022-12-29T14:51:37;8.90;99.90
19172;DHT22;9718;52.200;21.052;2022-12-29T14:57:21;8.90;99.90
19172;DHT22;9718;52.200;21.052;2022-12-29T15:02:39;8.90;99.90
19172;DHT22;9718;52.200;21.052;2022-12-29T15:08:39;8.90;99.90
19172;DHT22;9718;52.200;21.052;2022-12-29T15:11:23;8.90;99.90
19172;DHT22;9718;52.200;21.052;2022-12-29T15:14:30;8.90;99.90
19172;DHT22;9718;52.200;21.052;2022-12-29T15:17:47;8.90;99.90
19172;DHT22;9718;52.200;21.052;2022-12-29T15:20:59;8.90;99.90
19172;DHT22;9718;52.200;21.052;2022-12-29T15:23:45;8.80;99.90
19172;DHT22;9718;52.200;21.052;2022-12-29T15:26:49;8.80;99.90
19172;DHT22;9718;52.200;21.052;2022-12-29T15:29:57;8.70;99.90
19172;DHT22;9718;52.200;21.052;2022-12-29T15:33:17;8.60;99.90
19172;DHT22;9718;52.200;21.052;2022-12-29T15:35:49;8.60;99.90
19172;DHT22;9718;52.200;21.052;2022-12-29T15:38:56;8.60;99.90
19172;DHT22;9718;52.200;21.052;2022-12-29T15:45:31;8.70;99.90
19172;DHT22;9718;52.200;21.052;2022-12-29T15:48:00;8.60;99.90
19172;DHT22;9718;52.200;21.052;2022-12-29T15:54:18;8.60;99.90
19172;DHT22;9718;52.200;21.052;2022-12-29T15:57:22;8.60;99.90
19172;DHT22;9718;52.200;21.052;2022-12-29T16:00:22;8.50;99.90
19172;DHT22;9718;52.200;21.052;2022-12-29T16:03:12;8.50;99.90
19172;DHT22;9718;52.200;21.052;2022-12-29T16:06:10;8.50;99.90
19172;DHT22;9718;52.200;21.052;2022-12-29T16:12:34;8.50;99.90
19172;DHT22;9718;52.200;21.052;2022-12-29T16:15:34;8.40;99.90
19172;DHT22;9718;52.200;21.052;2022-12-29T16:18:23;8.50;99.90
19172;DHT22;9718;52.200;21.052;2022-12-29T16:21:45;8.50;99.90
19172;DHT22;9718;52.200;21.052;2022-12-29T16:24:08;8.50;99.90
19172;DHT22;9718;52.200;21.052;2022-12-29T16:27:21;8.40;99.90
19172;DHT22;9718;52.200;21.052;2022-12-29T16:33:30;8.30;99.90
19172;DHT22;9718;52.200;21.052;2022-12-29T16:36:30;8.30;99.90
19172;DHT22;9718;52.200;21.052;2022-12-29T16:39:33;8.40;99.90
19172;DHT22;9718;52.200;21.052;2022-12-29T16:50:36;8.30;99.90
19172;DHT22;9718;52.200;21.052;2022-12-29T16:56:33;8.30;99.90
19172;DHT22;9718;52.200;21.052;2022-12-29T17:01:50;8.30;99.90
19172;DHT22;9718;52.200;21.052;2022-12-29T17:04:37;8.30;99.90
19172;DHT22;9718;52.200;21.052;2022-12-29T17:07:44;8.20;99.90
19172;DHT22;9718;52.200;21.052;2022-12-29T17:10:12;8.30;99.90
19172;DHT22;9718;52.200;21.052;2022-12-29T17:13:18;8.30;99.90
19172;DHT22;9718;52.200;21.052;2022-12-29T17:16:05;8.40;99.90
19172;DHT22;9718;52.200;21.052;2022-12-29T17:19:17;8.50;99.90
19172;DHT22;9718;52.200;21.052;2022-12-29T17:22:01;8.60;99.90
19172;DHT22;9718;52.200;21.052;2022-12-29T17:25:03;8.60;99.90
19172;DHT22;9718;52.200;21.052;2022-12-29T17:28:41;8.60;99.90
19172;DHT22;9718;52.200;21.052;2022-12-29T17:31:21;8.70;99.90
19172;DHT22;9718;52.200;21.052;2022-12-29T17:34:11;8.70;99.90
19172;DHT22;9718;52.200;21.052;2022-12-29T17:40:21;8.70;99.90
19172;DHT22;9718;52.200;21.052;2022-12-29T17:43:09;8.60;99.90
19172;DHT22;9718;52.200;21.052;2022-12-29T17:45:38;8.60;99.90
19172;DHT22;9718;52.200;21.052;2022-12-29T17:48:45;8.60;99.90
19172;DHT22;9718;52.200;21.052;2022-12-29T17:51:54;8.50;99.90
19172;DHT22;9718;52.200;21.052;2022-12-29T17:54:43;8.50;99.90
19172;DHT22;9718;52.200;21.052;2022-12-29T17:57:15;8.50;99.90
19172;DHT22;9718;52.200;21.052;2022-12-29T18:00:02;8.50;99.90
19172;DHT22;9718;52.200;21.052;2022-12-29T18:02:50;8.50;99.90
19172;DHT22;9718;52.200;21.052;2022-12-29T18:05:57;8.50;99.90
19172;DHT22;9718;52.200;21.052;2022-12-29T18:09:24;8.50;99.90
19172;DHT22;9718;52.200;21.052;2022-12-29T18:15:22;8.50;99.90
19172;DHT22;9718;52.200;21.052;2022-12-29T18:18:47;8.50;99.90
19172;DHT22;9718;52.200;21.052;2022-12-29T18:21:49;8.50;99.90
19172;DHT22;9718;52.200;21.052;2022-12-29T18:24:51;8.40;99.90
19172;DHT22;9718;52.200;21.052;2022-12-29T18:27:38;8.40;99.90
19172;DHT22;9718;52.200;21.052;2022-12-29T18:30:25;8.40;99.90
19172;DHT22;9718;52.200;21.052;2022-12-29T18:32:53;8.40;99.90
19172;DHT22;9718;52.200;21.052;2022-12-29T18:35:51;8.30;99.90
19172;DHT22;9718;52.200;21.052;2022-12-29T18:38:53;8.30;99.90
19172;DHT22;9718;52.200;21.052;2022-12-29T18:41:44;8.30;99.90
19172;DHT22;9718;52.200;21.052;2022-12-29T18:44:31;8.20;99.90
19172;DHT22;9718;52.200;21.052;2022-12-29T18:47:18;8.20;99.90
19172;DHT22;9718;52.200;21.052;2022-12-29T18:50:05;8.10;99.90
19172;DHT22;9718;52.200;21.052;2022-12-29T18:53:17;8.20;99.90
19172;DHT22;9718;52.200;21.052;2022-12-29T18:55:59;8.20;99.90
19172;DHT22;9718;52.200;21.052;2022-12-29T18:59:04;8.20;99.90
19172;DHT22;9718;52.200;21.052;2022-12-29T19:01:51;8.10;99.90
19172;DHT22;9718;52.200;21.052;2022-12-29T19:04:38;8.20;99.90
19172;DHT22;9718;52.200;21.052;2022-12-29T19:07:21;8.10;99.90
19172;DHT22;9718;52.200;21.052;2022-12-29T19:10:24;8.10;99.90
19172;DHT22;9718;52.200;21.052;2022-12-29T19:13:18;8.10;99.90
19172;DHT22;9718;52.200;21.052;2022-12-29T19:16:25;8.20;99.90
19172;DHT22;9718;52.200;21.052;2022-12-29T19:18:53;8.20;99.90
19172;DHT22;9718;52.200;21.052;2022-12-29T19:21:40;8.10;99.90
19172;DHT22;9718;52.200;21.052;2022-12-29T19:24:41;8.20;99.90
19172;DHT22;9718;52.200;21.052;2022-12-29T19:27:43;8.20;99.90
19172;DHT22;9718;52.200;21.052;2022-12-29T19:30:13;8.20;99.90
19172;DHT22;9718;52.200;21.052;2022-12-29T19:33:22;8.20;99.90
19172;DHT22;9718;52.200;21.052;2022-12-29T19:36:09;8.10;99.90
19172;DHT22;9718;52.200;21.052;2022-12-29T19:39:19;8.00;99.90